Time;durP1;ratioP1;P1;durP2;ratioP2;P2;SDS_P1;SDS_P2;PMS_P1;PMS_P2;Temp;Humidity;BMP_temperature;BMP_pressure;BME280_temperature;BME280_humidity;BME280_pressure;Samples;Min_cycle;Max_cycle;Signal;HPM_P1;HPM_P2
2022/09/11 00:00:30;;;;;;;;;;;;;;;24.96;64.38;100912.00;5091984;28;20051;-80
2022/09/11 00:02:56;;;;;;;4.97;3.90;;;;;;;24.93;64.39;100905.75;5093943;28;20023;-81
2022/09/11 00:05:21;;;;;;;;;;;;;;;24.95;64.76;100894.16;5093218;28;20487;-81
2022/09/11 00:07:47;;;;;;;5.18;3.85;;;;;;;24.85;64.55;100896.88;5090916;28;19916;-81
2022/09/11 00:10:12;;;;;;;;;;;;;;;24.96;64.56;100919.13;5094027;28;20024;-80
2022/09/11 00:12:38;;;;;;;5.13;3.90;;;;;;;24.91;64.62;100911.13;5086594;28;20003;-80
2022/09/11 00:15:04;;;;;;;;;;;;;;;24.95;64.74;100922.66;5093857;28;20386;-80
2022/09/11 00:17:29;;;;;;;4.28;3.70;;;;;;;24.87;64.51;100906.69;5085181;28;19988;-81
2022/09/11 00:19:55;;;;;;;;;;;;;;;24.96;64.49;100916.44;5089485;28;20765;-81
2022/09/11 00:22:20;;;;;;;4.63;4.10;;;;;;;24.91;64.60;100923.56;5093867;28;20440;-80
2022/09/11 00:24:46;;;;;;;;;;;;;;;24.93;64.85;100933.38;5094164;28;20496;-81
2022/09/11 00:27:11;;;;;;;5.68;3.90;;;;;;;24.87;65.07;100932.47;5092459;28;20002;-80
2022/09/11 00:29:37;;;;;;;;;;;;;;;24.93;64.90;100946.75;5094119;28;20374;-80
2022/09/11 00:32:03;;;;;;;6.22;4.25;;;;;;;24.91;64.94;100939.59;5093756;28;20360;-80
2022/09/11 00:34:29;;;;;;;;;;;;;;;24.95;64.69;100942.25;5091528;28;20089;-80
2022/09/11 00:36:54;;;;;;;5.38;3.83;;;;;;;24.90;64.65;100930.69;5086070;28;19921;-80
2022/09/11 00:39:20;;;;;;;;;;;;;;;24.95;64.67;100917.31;5093973;28;20020;-81
2022/09/11 00:41:46;;;;;;;6.90;4.35;;;;;;;24.92;64.83;100922.69;5093333;28;20382;-80
2022/09/11 00:44:11;;;;;;;;;;;;;;;24.94;64.72;100920.91;5090684;28;20024;-81
2022/09/11 00:46:52;;;;;;;4.85;4.03;;;;;;;24.91;64.96;100931.59;5093178;28;19912;-80
2022/09/11 00:49:50;;;;;;;5.40;3.90;;;;;;;24.91;65.06;100936.94;5092317;28;20036;-81
2022/09/11 00:52:17;;;;;;;6.00;4.10;;;;;;;24.89;65.25;100931.63;5054529;28;20067;-81
2022/09/11 00:54:50;;;;;;;4.43;3.95;;;;;;;24.82;65.09;100936.97;5091344;28;20032;-81
2022/09/11 00:57:17;;;;;;;5.13;4.03;;;;;;;24.89;65.15;100946.72;5077557;28;20031;-80
2022/09/11 00:59:44;;;;;;;4.50;4.10;;;;;;;24.89;65.09;100958.31;5091295;28;20055;-81
2022/09/11 01:02:12;;;;;;;8.00;4.18;;;;;;;24.90;65.21;100948.53;5073652;28;20032;-79
2022/09/11 01:04:38;;;;;;;4.75;4.25;;;;;;;24.77;65.21;100921.81;5082526;28;20118;-80
2022/09/11 01:07:04;;;;;;;4.78;4.13;;;;;;;24.89;65.17;100952.97;5074029;28;20082;-80
2022/09/11 01:09:29;;;;;;;;;;;;;;;24.93;65.08;100948.50;5093368;28;20502;-81
2022/09/11 01:12:09;;;;;;;5.93;4.03;;;;;;;24.89;65.09;100944.06;5087398;28;20388;-81
2022/09/11 01:14:41;;;;;;;4.72;4.10;;;;;;;24.88;65.16;100936.94;5088428;28;20024;-81
2022/09/11 01:17:34;;;;;;;4.78;4.03;;;;;;;24.88;65.16;100927.16;5092603;28;20047;-79
2022/09/11 01:20:18;;;;;;;4.75;4.15;;;;;;;24.84;65.27;100911.13;5092258;28;20028;-80
2022/09/11 01:23:18;;;;;;;5.60;4.10;;;;;;;24.65;65.08;100872.91;5089558;28;20016;-80
2022/09/11 01:26:17;;;;;;;4.63;4.00;;;;;;;24.89;65.18;100915.59;5096519;28;20409;-80
2022/09/11 01:28:52;;;;;;;4.55;4.15;;;;;;;24.88;65.32;100905.78;5084803;28;20032;-80
2022/09/11 01:31:21;;;;;;;4.32;3.85;;;;;;;24.88;65.31;100915.59;5090420;28;20043;-79
2022/09/11 01:33:58;;;;;;;4.43;3.90;;;;;;;24.83;65.18;100906.66;5092767;28;20048;-80
2022/09/11 01:36:43;;;;;;;6.75;4.40;;;;;;;24.89;65.30;100923.59;5082344;28;20029;-80
2022/09/11 01:39:09;;;;;;;4.95;4.43;;;;;;;24.80;65.26;100894.22;5070673;28;20386;-80
2022/09/11 01:41:46;;;;;;;6.43;4.47;;;;;;;24.88;65.28;100912.91;5083538;28;20081;-81
2022/09/11 01:44:23;;;;;;;4.57;4.13;;;;;;;24.88;65.04;100907.56;5087744;28;20020;-81
2022/09/11 01:46:51;;;;;;;4.55;3.97;;;;;;;24.67;65.06;100871.13;5074742;28;20024;-80
2022/09/11 01:49:24;;;;;;;4.55;4.13;;;;;;;24.81;65.15;100898.69;5081397;28;20092;-81
2022/09/11 01:51:53;;;;;;;5.20;4.07;;;;;;;24.81;65.19;100896.00;5088759;28;20081;-80
2022/09/11 01:54:21;;;;;;;5.10;4.40;;;;;;;24.85;65.03;100899.53;5080562;28;20062;-80
2022/09/11 01:56:59;;;;;;;7.03;4.25;;;;;;;24.87;65.30;100904.00;5086329;28;20103;-82
2022/09/11 01:59:36;;;;;;;4.72;4.20;;;;;;;24.87;65.25;100898.66;5081236;28;20108;-81
2022/09/11 02:02:08;;;;;;;4.30;3.88;;;;;;;24.87;65.24;100900.44;5084902;28;20115;-81
2022/09/11 02:05:06;;;;;;;5.45;4.35;;;;;;;24.89;65.21;100912.00;5090347;28;20032;-81
2022/09/11 02:07:40;;;;;;;6.35;4.50;;;;;;;24.87;65.23;100908.44;5090671;28;20039;-81
2022/09/11 02:10:13;;;;;;;5.35;4.20;;;;;;;24.77;64.88;100892.44;5090691;28;20020;-81
2022/09/11 02:13:14;;;;;;;5.18;4.57;;;;;;;24.89;65.12;100910.25;5083706;28;20481;-81
2022/09/11 02:15:44;;;;;;;5.65;4.43;;;;;;;24.77;65.10;100888.91;5050875;28;20036;-80
2022/09/11 02:18:23;;;;;;;4.90;4.38;;;;;;;24.83;64.88;100901.31;5090098;28;20027;-80
2022/09/11 02:20:50;;;;;;;5.10;4.50;;;;;;;24.79;65.05;100892.47;5089498;28;20111;-80
2022/09/11 02:23:15;;;;;;;6.63;4.75;;;;;;;24.75;65.07;100886.22;5090808;28;20028;-81
2022/09/11 02:25:41;;;;;;;;;;;;;;;24.88;65.13;100895.09;5073362;28;20081;-81
2022/09/11 02:28:06;;;;;;;5.38;4.30;;;;;;;24.82;64.97;100883.53;5089345;28;19912;-80
2022/09/11 02:30:32;;;;;;;;;;;;;;;24.87;64.97;100893.31;5090685;28;20017;-80
2022/09/11 02:32:57;;;;;;;4.68;4.22;;;;;;;24.81;65.21;100880.00;5094146;28;19943;-81
2022/09/11 02:35:23;;;;;;;;;;;;;;;24.87;65.24;100884.41;5089394;28;20492;-81
2022/09/11 02:38:19;;;;;;;5.85;4.40;;;;;;;24.71;65.22;100864.88;5089057;28;19922;-81
2022/09/11 02:41:20;;;;;;;5.00;4.35;;;;;;;24.83;65.22;100896.91;5089095;28;20042;-80
2022/09/11 02:44:02;;;;;;;4.60;4.05;;;;;;;24.81;65.20;100895.09;5086853;28;20028;-81
2022/09/11 02:46:47;;;;;;;5.00;4.07;;;;;;;24.81;65.04;100898.69;5083712;28;20032;-80
2022/09/11 02:49:18;;;;;;;5.63;4.45;;;;;;;24.81;65.11;100903.13;5089959;28;20024;-81
2022/09/11 02:52:02;;;;;;;4.72;4.25;;;;;;;24.82;64.98;100897.78;5083668;28;20020;-81
2022/09/11 02:54:52;;;;;;;4.82;4.25;;;;;;;24.81;65.05;100898.69;5084383;28;20027;-81
2022/09/11 02:57:36;;;;;;;5.57;4.70;;;;;;;24.75;65.07;100886.22;5057785;28;20622;-81
2022/09/11 03:00:06;;;;;;;5.35;4.78;;;;;;;24.77;65.18;100896.91;5089554;28;20049;-81
2022/09/11 03:02:36;;;;;;;4.60;4.20;;;;;;;24.81;64.84;100897.78;5090072;28;20077;-81
2022/09/11 03:05:03;;;;;;;5.53;4.60;;;;;;;24.66;65.02;100878.25;5090779;28;20024;-80
2022/09/11 03:07:29;;;;;;;4.90;4.13;;;;;;;24.76;65.12;100897.78;5092969;28;20039;-81
2022/09/11 03:09:55;;;;;;;6.32;4.75;;;;;;;24.82;64.99;100904.91;5093132;28;21341;-80
2022/09/11 03:12:20;;;;;;;;;;;;;;;24.85;64.87;100905.78;5087168;28;20032;-81
2022/09/11 03:14:47;;;;;;;6.05;4.80;;;;;;;24.68;64.90;100886.22;5092711;28;19961;-81
2022/09/11 03:17:13;;;;;;;5.72;4.80;;;;;;;24.72;64.53;100888.91;5087495;28;20051;-81
2022/09/11 03:19:38;;;;;;;;;;;;;;;24.83;64.72;100910.25;5082377;28;20378;-81
2022/09/11 03:22:04;;;;;;;5.43;4.90;;;;;;;24.78;64.82;100909.34;5085840;28;19923;-81
2022/09/11 03:24:29;;;;;;;;;;;;;;;24.82;64.80;100910.25;5089968;28;20024;-81
2022/09/11 03:26:55;;;;;;;7.80;4.80;;;;;;;24.74;64.86;100908.50;5082385;28;19912;-81
2022/09/11 03:29:20;;;;;;;;;;;;;;;24.81;64.79;100908.44;5092789;28;20569;-81
2022/09/11 03:31:46;;;;;;;5.50;4.63;;;;;;;24.78;65.09;100917.38;5082024;28;20457;-81
2022/09/11 03:34:11;;;;;;;;;;;;;;;24.81;64.86;100911.13;5094078;28;20417;-81
2022/09/11 03:36:37;;;;;;;5.47;4.97;;;;;;;24.71;65.06;100903.16;5094555;28;20056;-80
2022/09/11 03:39:02;;;;;;;;;;;;;;;24.80;64.78;100920.94;5094146;28;20028;-81
2022/09/11 03:41:28;;;;;;;6.35;4.82;;;;;;;24.76;65.17;100920.06;5082072;28;19997;-81
2022/09/11 03:43:53;;;;;;;;;;;;;;;24.80;64.77;100926.28;5095076;28;20077;-81
2022/09/11 03:46:19;;;;;;;7.25;5.00;;;;;;;24.69;64.83;100915.59;5098049;28;19927;-81
2022/09/11 03:48:48;;;;;;;;;;;;;;;24.79;64.99;100927.19;5094207;28;20015;-81
2022/09/11 03:51:13;;;;;;;5.70;4.82;;;;;;;24.73;64.84;100920.06;5085343;28;20388;-81
2022/09/11 03:53:40;;;;;;;;;;;;;;;24.78;64.68;100936.94;5094426;28;20115;-80
2022/09/11 03:56:05;;;;;;;6.97;5.35;;;;;;;24.74;65.20;100934.28;5093377;28;19918;-80
2022/09/11 03:58:31;;;;;;;;;;;;;;;24.75;65.23;100933.41;5094608;28;20107;-80
2022/09/11 04:00:56;;;;;;;7.45;5.38;;;;;;;24.73;64.97;100929.84;5093880;28;19938;-81
2022/09/11 04:03:22;;;;;;;;;;;;;;;24.75;65.08;100926.28;5085346;28;20024;-80
2022/09/11 04:06:01;;;;;;;6.32;5.40;;;;;;;24.69;64.99;100920.94;5094307;28;20368;-80
2022/09/11 04:08:32;;;;;;;6.30;5.25;;;;;;;24.71;65.32;100932.53;5092620;28;20500;-80
2022/09/11 04:10:59;;;;;;;6.05;5.45;;;;;;;24.74;65.15;100935.22;5091833;28;20031;-81
2022/09/11 04:13:35;;;;;;;6.63;5.43;;;;;;;24.73;64.93;100933.41;5089131;28;20028;-80
2022/09/11 04:16:06;;;;;;;6.88;5.63;;;;;;;24.73;65.13;100933.41;5093494;28;20020;-81
2022/09/11 04:18:34;;;;;;;6.28;5.63;;;;;;;24.63;65.03;100920.97;5090882;28;20120;-81
2022/09/11 04:21:11;;;;;;;6.55;5.93;;;;;;;24.50;64.94;100895.19;5092788;28;20024;-81
2022/09/11 04:23:37;;;;;;;7.18;5.60;;;;;;;24.68;64.98;100919.19;5093819;28;20035;-82
2022/09/11 04:26:13;;;;;;;8.07;5.38;;;;;;;24.69;65.11;100930.75;5093084;28;20126;-81
2022/09/11 04:28:38;;;;;;;7.93;5.68;;;;;;;24.61;64.94;100903.16;5093214;28;20020;-82
2022/09/11 04:31:04;;;;;;;;;;;;;;;24.74;64.89;100928.94;5093502;28;20396;-82
2022/09/11 04:33:30;;;;;;;6.13;5.50;;;;;;;24.71;65.00;100928.97;5090523;28;19974;-82
2022/09/11 04:35:55;;;;;;;;;;;;;;;24.73;64.96;100935.19;5092317;28;20024;-82
2022/09/11 04:38:22;;;;;;;6.95;5.68;;;;;;;24.42;64.85;100886.25;5080579;28;20332;-81
2022/09/11 04:40:48;;;;;;;5.68;4.97;;;;;;;24.69;64.87;100936.09;5076722;28;20020;-82
2022/09/11 04:43:15;;;;;;;;;;;;;;;24.73;64.99;100946.75;5085249;28;20034;-83
2022/09/11 04:45:40;;;;;;;7.80;5.67;;;;;;;24.62;64.88;100929.88;5081619;28;20057;-82
2022/09/11 04:48:06;;;;;;;;;;;;;;;24.73;64.69;100946.75;5084675;28;20468;-81
2022/09/11 04:50:31;;;;;;;6.50;5.50;;;;;;;24.64;64.97;100940.53;5080528;28;20430;-81
2022/09/11 04:52:57;;;;;;;;;;;;;;;24.72;64.88;100950.34;5085540;28;20027;-81
2022/09/11 04:55:23;;;;;;;7.28;6.47;;;;;;;24.67;65.13;100949.44;5083686;28;19917;-82
2022/09/11 04:57:49;;;;;;;6.82;5.68;;;;;;;24.63;65.12;100946.78;5079519;28;20513;-81
2022/09/11 05:00:14;;;;;;;;;;;;;;;24.71;65.12;100951.22;5087332;28;20102;-82
2022/09/11 05:02:40;;;;;;;6.78;6.07;;;;;;;24.59;64.85;100940.53;5080098;28;19916;-82
2022/09/11 05:05:07;;;;;;;;;;;;;;;24.70;64.99;100949.44;5077278;28;20036;-82
2022/09/11 05:07:34;;;;;;;7.05;6.10;;;;;;;24.63;65.03;100953.00;5085434;28;19982;-82
2022/09/11 05:10:00;;;;;;;6.80;6.20;;;;;;;24.63;65.22;100954.78;5073013;28;20040;-81
2022/09/11 05:12:27;;;;;;;8.70;6.20;;;;;;;24.65;65.29;100953.00;5077260;28;20036;-82
2022/09/11 05:14:53;;;;;;;6.45;5.65;;;;;;;24.63;64.88;100945.00;5075068;28;20029;-81
2022/09/11 05:17:18;;;;;;;;;;;;;;;24.71;64.75;100950.34;5087727;28;20039;-82
2022/09/11 05:19:44;;;;;;;8.27;6.30;;;;;;;24.62;64.95;100945.91;5081707;28;19924;-81
2022/09/11 05:22:09;;;;;;;;;;;;;;;24.71;64.90;100953.88;5072680;28;20016;-81
2022/09/11 05:24:35;;;;;;;6.45;5.45;;;;;;;24.62;65.03;100945.91;5072707;28;19912;-80
2022/09/11 05:27:00;;;;;;;;;;;;;;;24.72;64.88;100955.69;5088833;28;20136;-80
2022/09/11 05:29:28;;;;;;;9.27;5.88;;;;;;;24.66;64.97;100960.13;5083974;28;19916;-81
2022/09/11 05:32:00;;;;;;;6.28;5.18;;;;;;;24.68;64.91;100958.34;5081198;28;20448;-80
2022/09/11 05:34:27;;;;;;;6.18;5.22;;;;;;;24.53;64.65;100932.53;5083232;28;20047;-80
2022/09/11 05:36:56;;;;;;;7.20;5.47;;;;;;;24.69;64.72;100966.34;5085114;28;20016;-81
2022/09/11 05:39:22;;;;;;;7.35;5.80;;;;;;;24.67;64.39;100951.22;5079586;28;20081;-81
2022/09/11 05:41:52;;;;;;;9.13;5.60;;;;;;;24.64;64.57;100954.78;5085397;28;20023;-80
2022/09/11 05:44:18;;;;;;;6.60;5.47;;;;;;;24.68;64.20;100959.25;5087296;28;20024;-80
2022/09/11 05:46:43;;;;;;;;;;;;;;;24.73;64.45;100964.56;5082861;28;20086;-80
2022/09/11 05:49:09;;;;;;;6.78;5.38;;;;;;;24.68;64.70;100961.91;5085220;28;19916;-81
2022/09/11 05:51:36;;;;;;;;;;;;;;;24.73;64.13;100962.78;5090018;28;20481;-82
2022/09/11 05:54:02;;;;;;;5.93;5.30;;;;;;;24.65;64.24;100953.88;5085636;28;19920;-79
2022/09/11 05:56:27;;;;;;;;;;;;;;;24.72;64.36;100962.78;5088751;28;20012;-81
2022/09/11 05:58:53;;;;;;;8.50;5.45;;;;;;;24.62;64.10;100953.00;5079467;28;19924;-80
2022/09/11 06:01:37;;;;;;;5.80;5.25;;;;;;;24.68;64.02;100964.59;5072369;28;20029;-80
2022/09/11 06:04:08;;;;;;;6.57;5.38;;;;;;;24.65;63.72;100955.69;5077973;28;20024;-79
2022/09/11 06:06:33;;;;;;;8.05;5.45;;;;;;;24.69;63.88;100966.34;5070355;28;20074;-80
2022/09/11 06:08:59;;;;;;;;;;;;;;;24.73;63.69;100969.91;5073548;28;20028;-80
2022/09/11 06:11:24;;;;;;;6.60;5.75;;;;;;;24.67;63.84;100961.91;5076187;28;19920;-79
2022/09/11 06:13:50;;;;;;;;;;;;;;;24.72;63.81;100966.38;5078327;28;20504;-79
2022/09/11 06:16:18;;;;;;;6.70;5.00;;;;;;;24.68;63.75;100967.25;5078416;28;19955;-79
2022/09/11 06:18:43;;;;;;;5.50;5.00;;;;;;;24.67;63.50;100961.91;5073859;28;20029;-80
2022/09/11 06:21:14;;;;;;;;;;;;;;;24.73;63.50;100968.13;5073696;28;20029;-80
2022/09/11 06:23:39;;;;;;;6.75;5.43;;;;;;;24.63;63.27;100954.78;5087099;28;19916;-82
2022/09/11 06:26:07;;;;;;;;;;;;;;;24.73;63.32;100968.13;5091223;28;20028;-81
2022/09/11 06:28:34;;;;;;;6.55;4.80;;;;;;;24.70;63.29;100961.91;5090205;28;19908;-81
2022/09/11 06:31:01;;;;;;;5.88;4.90;;;;;;;24.69;63.59;100966.34;5082019;28;20028;-80
2022/09/11 06:33:33;;;;;;;5.88;5.03;;;;;;;24.53;63.54;100945.88;5091201;28;20549;-81
2022/09/11 06:36:04;;;;;;;5.50;4.97;;;;;;;24.67;63.17;100972.59;5090275;28;20088;-82
2022/09/11 06:38:33;;;;;;;7.95;4.80;;;;;;;24.70;62.94;100970.81;5084781;28;20024;-82
2022/09/11 06:41:06;;;;;;;6.10;5.10;;;;;;;24.71;63.03;100977.91;5081792;28;20514;-81
2022/09/11 06:43:32;;;;;;;6.53;4.85;;;;;;;24.64;63.18;100960.13;5080312;28;20139;-80
2022/09/11 06:46:10;;;;;;;;;;;;;;;24.75;62.80;100977.03;5080145;28;20532;-80
2022/09/11 06:48:35;;;;;;;6.43;4.90;;;;;;;24.74;62.89;100977.03;5072835;28;20512;-79
2022/09/11 06:51:02;;;;;;;;;;;;;;;24.76;62.68;100972.56;5075446;28;20062;-80
2022/09/11 06:53:28;;;;;;;5.03;4.50;;;;;;;24.73;62.60;100976.13;5075359;28;19973;-80
2022/09/11 06:55:57;;;;;;;;;;;;;;;24.75;62.53;100970.81;5072366;28;20116;-81
2022/09/11 06:58:22;;;;;;;5.40;4.82;;;;;;;24.70;62.73;100977.91;5074503;28;19922;-81
2022/09/11 07:00:48;;;;;;;;;;;;;;;24.75;62.80;100976.16;5074416;28;20401;-81
2022/09/11 07:03:14;;;;;;;5.10;4.60;;;;;;;24.54;62.70;100953.03;5077756;28;19916;-81
2022/09/11 07:05:44;;;;;;;;;;;;;;;24.73;62.65;100978.81;5072025;28;20619;-80
2022/09/11 07:08:10;;;;;;;5.00;4.50;;;;;;;24.63;62.55;100961.00;5079406;28;19917;-81
2022/09/11 07:10:35;;;;;;;;;;;;;;;24.74;62.44;100982.38;5070464;28;20509;-81
2022/09/11 07:13:01;;;;;;;4.80;4.35;;;;;;;24.70;62.66;100975.25;5085501;28;20010;-81
2022/09/11 07:15:26;;;;;;;;;;;;;;;24.71;62.63;100987.72;5073513;28;20072;-80
2022/09/11 07:17:53;;;;;;;4.90;4.40;;;;;;;24.71;62.71;100985.94;5074686;28;19924;-80
2022/09/11 07:20:21;;;;;;;4.85;4.40;;;;;;;24.60;62.44;100982.41;5076201;28;20032;-80
2022/09/11 07:22:47;;;;;;;4.78;4.32;;;;;;;24.61;62.28;100975.25;5070067;28;20024;-80
2022/09/11 07:25:13;;;;;;;5.70;4.32;;;;;;;24.71;62.27;100987.72;5074842;28;20401;-80
2022/09/11 07:27:39;;;;;;;;;;;;;;;24.72;62.14;100989.50;5067623;28;20029;-81
2022/09/11 07:30:05;;;;;;;5.63;4.40;;;;;;;24.56;62.33;100972.59;5074958;28;20018;-81
2022/09/11 07:32:31;;;;;;;4.60;4.15;;;;;;;24.69;62.26;100989.50;5070443;28;20025;-81
2022/09/11 07:34:56;;;;;;;;;;;;;;;24.66;62.40;100987.72;5074709;28;20047;-81
2022/09/11 07:37:22;;;;;;;4.38;3.97;;;;;;;24.65;62.17;100991.28;5089712;28;19912;-81
2022/09/11 07:39:47;;;;;;;;;;;;;;;24.69;62.24;100994.84;5088964;28;20409;-81
2022/09/11 07:42:13;;;;;;;4.45;4.05;;;;;;;24.65;62.85;100991.28;5089834;28;19938;-81
2022/09/11 07:44:39;;;;;;;;;;;;;;;24.67;62.75;100993.97;5086609;28;20101;-80
2022/09/11 07:47:05;;;;;;;5.30;4.38;;;;;;;24.63;62.94;100993.06;5074595;28;19920;-79
2022/09/11 07:49:30;;;;;;;;;;;;;;;24.60;62.46;100990.41;5078460;28;20086;-80
2022/09/11 07:51:58;;;;;;;4.45;3.83;;;;;;;24.57;63.19;100995.72;5072981;28;20386;-82
2022/09/11 07:54:27;;;;;;;4.38;3.92;;;;;;;24.58;62.63;100997.53;5086008;28;20036;-81
2022/09/11 07:56:53;;;;;;;5.30;3.90;;;;;;;24.58;63.00;100997.53;5081712;28;20028;-80
2022/09/11 07:59:19;;;;;;;;;;;;;;;24.59;62.65;100993.94;5086414;28;20032;-80
2022/09/11 08:01:44;;;;;;;4.10;3.70;;;;;;;24.56;62.84;100994.84;5090327;28;19970;-80
2022/09/11 08:04:10;;;;;;;;;;;;;;;24.55;63.64;100992.16;5087088;28;20059;-79
2022/09/11 08:06:37;;;;;;;4.13;3.72;;;;;;;24.58;62.90;100992.19;5087517;28;19981;-80
2022/09/11 08:09:05;;;;;;;4.45;4.05;;;;;;;24.53;63.41;100983.25;5083299;28;20020;-79
2022/09/11 08:11:35;;;;;;;5.65;4.00;;;;;;;24.57;62.77;100990.38;5086007;28;20032;-79
2022/09/11 08:14:00;;;;;;;4.57;3.95;;;;;;;24.28;62.41;100953.88;5076998;28;20328;-79
2022/09/11 08:16:26;;;;;;;;;;;;;;;24.52;62.98;100984.16;5076855;28;20027;-82
2022/09/11 08:18:52;;;;;;;3.88;3.47;;;;;;;24.52;62.94;100976.16;5089429;28;19916;-79
2022/09/11 08:21:17;;;;;;;;;;;;;;;24.50;62.39;100984.16;5088735;28;20024;-79
2022/09/11 08:23:44;;;;;;;4.70;3.53;;;;;;;24.47;63.57;100981.47;5084876;28;20527;-80
2022/09/11 08:26:11;;;;;;;5.47;3.92;;;;;;;24.51;63.57;100977.94;5088717;28;20024;-79
2022/09/11 08:28:37;;;;;;;5.38;3.75;;;;;;;24.50;63.24;100975.28;5088332;28;20024;-79
2022/09/11 08:31:04;;;;;;;3.95;3.55;;;;;;;24.46;63.71;100961.00;5089319;28;20462;-79
2022/09/11 08:33:34;;;;;;;3.80;3.50;;;;;;;24.48;63.05;100961.00;5077614;28;20494;-79
2022/09/11 08:36:02;;;;;;;4.30;3.90;;;;;;;24.54;63.32;100961.03;5085786;28;20027;-79
2022/09/11 08:38:28;;;;;;;4.93;3.65;;;;;;;24.54;63.43;100963.69;5085292;28;20021;-79
2022/09/11 08:40:55;;;;;;;;;;;;;;;24.57;63.64;100961.94;5091092;28;20028;-80
2022/09/11 08:43:26;;;;;;;3.65;3.35;;;;;;;24.53;63.23;100957.47;5079517;28;20352;-80
2022/09/11 08:45:55;;;;;;;3.58;3.25;;;;;;;24.53;63.77;100953.91;5080570;28;20082;-79
2022/09/11 08:48:27;;;;;;;4.18;3.70;;;;;;;24.54;63.84;100958.38;5100124;27;20111;-79
2022/09/11 08:50:52;;;;;;;3.70;3.40;;;;;;;24.56;63.43;100948.56;5082889;28;20111;-80
2022/09/11 08:53:18;;;;;;;;;;;;;;;24.63;62.95;100952.13;5090566;28;20120;-80
2022/09/11 08:55:50;;;;;;;3.63;3.33;;;;;;;24.60;62.99;100944.13;5080760;28;19913;-80
2022/09/11 08:58:24;;;;;;;4.20;3.80;;;;;;;24.56;63.89;100938.78;5096732;28;20036;-80
2022/09/11 09:01:25;;;;;;;3.50;3.20;;;;;;;24.56;63.48;100935.22;5085714;28;20044;-81
2022/09/11 09:04:03;;;;;;;3.28;2.97;;;;;;;24.59;63.50;100932.53;5074803;28;20028;-80
2022/09/11 09:06:53;;;;;;;3.60;3.30;;;;;;;24.58;63.25;100931.66;5087153;28;20032;-80
2022/09/11 09:09:39;;;;;;;3.78;3.47;;;;;;;24.58;63.04;100925.44;5075679;28;20025;-80
2022/09/11 09:12:15;;;;;;;3.45;3.15;;;;;;;24.56;63.02;100921.88;5073622;28;20029;-80
2022/09/11 09:14:59;;;;;;;6.53;3.90;;;;;;;24.65;63.33;100921.84;5072782;28;20025;-81
2022/09/11 09:17:28;;;;;;;4.28;3.30;;;;;;;24.63;63.44;100920.06;5080635;28;20036;-80
2022/09/11 09:20:22;;;;;;;3.80;3.33;;;;;;;24.68;63.31;100923.63;5079002;28;20032;-80
2022/09/11 09:22:52;;;;;;;3.97;3.13;;;;;;;24.65;63.34;100920.97;5077421;28;20048;-80
2022/09/11 09:25:21;;;;;;;3.33;3.13;;;;;;;24.62;63.24;100916.53;5073746;28;20508;-79
2022/09/11 09:27:50;;;;;;;3.45;3.15;;;;;;;24.62;63.49;100900.50;5085569;28;20031;-79
2022/09/11 09:30:26;;;;;;;4.00;3.38;;;;;;;24.53;63.17;100897.81;5056786;28;20104;-80
2022/09/11 09:33:02;;;;;;;4.63;3.40;;;;;;;24.65;63.23;100915.63;5083681;28;20638;-79
2022/09/11 09:35:36;;;;;;;3.40;3.10;;;;;;;24.65;63.56;100903.16;5086641;28;20314;-80
2022/09/11 09:38:11;;;;;;;3.40;3.10;;;;;;;24.55;63.35;100896.97;5087407;28;20048;-80
2022/09/11 09:40:41;;;;;;;3.83;3.42;;;;;;;24.66;63.32;100907.63;5075098;28;20021;-80
2022/09/11 09:43:16;;;;;;;3.50;3.20;;;;;;;24.68;63.34;100902.25;5082203;28;20454;-80
2022/09/11 09:46:21;;;;;;;3.27;2.97;;;;;;;24.72;63.29;100906.69;5075914;28;20032;-80
2022/09/11 09:48:47;;;;;;;3.75;3.45;;;;;;;24.69;63.17;100894.25;5071945;28;20131;-79
2022/09/11 09:51:12;;;;;;;;;;;;;;;24.76;63.13;100901.38;5079404;28;20106;-79
2022/09/11 09:53:45;;;;;;;3.40;3.10;;;;;;;24.72;63.10;100896.94;5090065;27;20007;-80
2022/09/11 09:56:15;;;;;;;3.60;3.30;;;;;;;24.58;62.92;100880.91;5078962;28;20508;-80
2022/09/11 09:58:50;;;;;;;3.47;3.17;;;;;;;24.67;62.36;100873.78;5072134;28;20028;-79
2022/09/11 10:01:45;;;;;;;3.53;3.20;;;;;;;24.76;62.97;100884.44;5091789;27;20036;-80
2022/09/11 10:04:24;;;;;;;3.45;3.15;;;;;;;24.76;63.25;100885.34;5071063;28;20039;-80
2022/09/11 10:06:51;;;;;;;3.92;3.42;;;;;;;24.74;63.31;100879.13;5074699;28;20079;-79
2022/09/11 10:09:26;;;;;;;4.05;3.50;;;;;;;24.67;62.10;100873.78;5078605;28;20039;-80
2022/09/11 10:11:54;;;;;;;3.80;3.40;;;;;;;24.61;63.09;100861.31;5077719;28;20064;-79
2022/09/11 10:14:21;;;;;;;4.10;3.13;;;;;;;24.72;63.06;100878.22;5085416;28;20050;-79
2022/09/11 10:16:49;;;;;;;5.05;3.75;;;;;;;24.74;63.23;100878.22;5092749;28;20554;-80
2022/09/11 10:19:38;;;;;;;4.32;3.30;;;;;;;24.76;63.55;100872.00;5078511;28;20035;-79
2022/09/11 10:22:22;;;;;;;4.05;3.65;;;;;;;24.51;63.34;100819.50;5075423;28;20386;-78
2022/09/11 10:25:03;;;;;;;3.53;3.22;;;;;;;24.77;62.99;100862.19;5077599;28;20590;-79
2022/09/11 10:27:32;;;;;;;3.83;3.30;;;;;;;24.79;63.12;100860.41;5078093;28;20032;-79
2022/09/11 10:29:59;;;;;;;3.45;2.90;;;;;;;24.79;63.33;100849.72;5082724;28;20028;-80
2022/09/11 10:32:25;;;;;;;4.22;3.63;;;;;;;24.83;63.22;100864.84;5082288;28;20023;-80
2022/09/11 10:34:52;;;;;;;3.33;3.10;;;;;;;24.82;63.27;100865.72;5088453;28;20412;-81
2022/09/11 10:40:21;;;;;;;3.65;3.30;;;;;;;24.86;63.25;100866.59;5091150;28;20043;-81
2022/09/11 10:42:47;;;;;;;3.88;3.50;;;;;;;24.87;63.57;100863.03;5091505;28;20024;-80
2022/09/11 10:45:17;;;;;;;3.88;3.45;;;;;;;24.88;63.60;100865.69;5085897;28;20047;-80
2022/09/11 10:47:47;;;;;;;3.70;3.40;;;;;;;24.87;63.56;100861.28;5089969;28;20507;-80
2022/09/11 10:50:19;;;;;;;3.28;2.97;;;;;;;24.83;63.79;100847.91;5089133;28;20024;-81
2022/09/11 10:53:17;;;;;;;3.60;3.30;;;;;;;24.88;63.72;100856.81;5083482;28;20025;-78
2022/09/11 10:55:50;;;;;;;3.50;3.15;;;;;;;24.88;63.53;100851.47;5071394;28;20123;-82
2022/09/11 10:58:18;;;;;;;3.80;3.50;;;;;;;24.89;63.50;100862.16;5079348;28;20410;-80
2022/09/11 11:01:09;;;;;;;4.45;4.00;;;;;;;24.85;63.59;100848.78;5085631;28;20023;-80
2022/09/11 11:03:35;;;;;;;3.72;3.42;;;;;;;24.88;63.69;100851.47;5088326;28;20027;-81
2022/09/11 11:06:19;;;;;;;;;;;;;;;24.96;63.19;100853.22;5081350;28;20028;-81
2022/09/11 11:09:00;;;;;;;4.03;3.53;;;;;;;24.94;63.72;100854.13;5079832;28;19916;-81
2022/09/11 11:11:42;;;;;;;3.55;3.25;;;;;;;24.93;63.73;100861.25;5078534;28;20572;-81
2022/09/11 11:14:26;;;;;;;3.83;3.50;;;;;;;24.93;63.57;100850.56;5072328;28;20028;-81
2022/09/11 11:17:17;;;;;;;4.38;3.60;;;;;;;24.95;63.72;100840.72;5071961;28;20494;-81
2022/09/11 11:20:06;;;;;;;3.63;3.25;;;;;;;24.96;63.86;100849.66;5070119;28;20090;-82
2022/09/11 11:22:50;;;;;;;3.63;3.33;;;;;;;24.96;63.87;100850.53;5079249;28;20035;-82
2022/09/11 11:25:32;;;;;;;3.90;3.38;;;;;;;24.73;63.55;100797.19;5088753;28;20042;-82
2022/09/11 11:28:37;;;;;;;4.57;3.83;;;;;;;24.98;63.59;100842.53;5086586;28;20016;-82
2022/09/11 11:31:02;;;;;;;3.70;3.40;;;;;;;25.03;63.42;100839.84;5091544;28;20032;-82
2022/09/11 11:33:45;;;;;;;;;;;;;;;25.07;63.21;100831.78;5095150;28;20185;-82
2022/09/11 11:36:23;;;;;;;4.13;3.83;;;;;;;25.02;63.33;100832.69;5089830;28;20021;-81
2022/09/11 11:38:59;;;;;;;3.97;3.45;;;;;;;25.08;63.45;100830.91;5087803;28;20089;-81
2022/09/11 11:41:36;;;;;;;4.25;3.85;;;;;;;25.07;63.38;100833.56;5086401;28;20040;-81
2022/09/11 11:44:03;;;;;;;4.22;3.75;;;;;;;25.11;63.35;100821.97;5091441;28;20122;-83
2022/09/11 11:46:34;;;;;;;3.88;3.58;;;;;;;25.14;63.27;100824.63;5091670;28;20024;-82
2022/09/11 11:49:03;;;;;;;4.10;3.70;;;;;;;25.17;63.43;100825.50;5094583;28;20051;-82
2022/09/11 11:51:49;;;;;;;4.18;3.78;;;;;;;25.18;63.22;100821.91;5110639;28;20163;-81
2022/09/11 11:54:23;;;;;;;5.03;4.20;;;;;;;25.16;63.26;100817.50;5092317;28;20107;-82
2022/09/11 11:56:57;;;;;;;4.32;3.92;;;;;;;25.08;63.44;100795.25;5083360;28;20024;-83
2022/09/11 11:59:41;;;;;;;4.50;3.88;;;;;;;25.16;63.31;100820.16;5080143;28;20542;-82